sensor_id;sensor_type;location;lat;lon;timestamp;P1;durP1;ratioP1;P2;durP2;ratioP2
56136;SDS011;42008;52.934;5.884;2022-12-13T00:01:40;89.60;;;36.03;;
56136;SDS011;42008;52.934;5.884;2022-12-13T00:04:06;89.97;;;35.23;;
56136;SDS011;42008;52.934;5.884;2022-12-13T00:06:33;90.70;;;36.30;;
56136;SDS011;42008;52.934;5.884;2022-12-13T00:08:59;88.90;;;35.00;;
56136;SDS011;42008;52.934;5.884;2022-12-13T00:11:25;75.37;;;34.50;;
56136;SDS011;42008;52.934;5.884;2022-12-13T00:13:51;83.93;;;36.40;;
56136;SDS011;42008;52.934;5.884;2022-12-13T00:16:19;89.53;;;35.60;;
56136;SDS011;42008;52.934;5.884;2022-12-13T00:18:49;81.43;;;34.50;;
56136;SDS011;42008;52.934;5.884;2022-12-13T00:21:18;75.00;;;34.60;;
56136;SDS011;42008;52.934;5.884;2022-12-13T00:23:45;83.97;;;36.80;;
56136;SDS011;42008;52.934;5.884;2022-12-13T00:26:12;82.23;;;34.97;;
56136;SDS011;42008;52.934;5.884;2022-12-13T00:28:46;90.47;;;36.40;;
56136;SDS011;42008;52.934;5.884;2022-12-13T00:31:15;81.87;;;35.00;;
56136;SDS011;42008;52.934;5.884;2022-12-13T00:33:41;77.27;;;32.80;;
56136;SDS011;42008;52.934;5.884;2022-12-13T00:36:07;83.37;;;33.47;;
56136;SDS011;42008;52.934;5.884;2022-12-13T00:38:34;81.30;;;34.73;;
56136;SDS011;42008;52.934;5.884;2022-12-13T00:43:36;74.43;;;32.50;;
56136;SDS011;42008;52.934;5.884;2022-12-13T00:46:02;74.33;;;32.00;;
56136;SDS011;42008;52.934;5.884;2022-12-13T00:48:27;73.17;;;32.60;;
56136;SDS011;42008;52.934;5.884;2022-12-13T00:50:53;76.77;;;32.13;;
56136;SDS011;42008;52.934;5.884;2022-12-13T00:53:18;75.57;;;32.53;;
56136;SDS011;42008;52.934;5.884;2022-12-13T00:55:44;77.63;;;31.90;;
56136;SDS011;42008;52.934;5.884;2022-12-13T00:58:09;78.50;;;32.43;;
56136;SDS011;42008;52.934;5.884;2022-12-13T01:00:35;80.37;;;32.23;;
56136;SDS011;42008;52.934;5.884;2022-12-13T01:03:00;64.80;;;31.10;;
56136;SDS011;42008;52.934;5.884;2022-12-13T01:05:44;64.10;;;30.47;;
56136;SDS011;42008;52.934;5.884;2022-12-13T01:08:12;68.10;;;29.83;;
56136;SDS011;42008;52.934;5.884;2022-12-13T01:10:45;66.10;;;29.43;;
56136;SDS011;42008;52.934;5.884;2022-12-13T01:13:12;65.77;;;30.73;;
56136;SDS011;42008;52.934;5.884;2022-12-13T01:15:40;70.73;;;32.30;;
56136;SDS011;42008;52.934;5.884;2022-12-13T01:18:06;69.03;;;30.60;;
56136;SDS011;42008;52.934;5.884;2022-12-13T01:20:32;64.37;;;28.30;;
56136;SDS011;42008;52.934;5.884;2022-12-13T01:22:58;73.53;;;30.90;;
56136;SDS011;42008;52.934;5.884;2022-12-13T01:25:23;67.20;;;29.77;;
56136;SDS011;42008;52.934;5.884;2022-12-13T01:27:49;59.43;;;28.27;;
56136;SDS011;42008;52.934;5.884;2022-12-13T01:30:14;56.30;;;26.97;;
56136;SDS011;42008;52.934;5.884;2022-12-13T01:32:40;58.30;;;26.03;;
56136;SDS011;42008;52.934;5.884;2022-12-13T01:35:06;59.73;;;28.23;;
56136;SDS011;42008;52.934;5.884;2022-12-13T01:37:31;56.30;;;26.93;;
56136;SDS011;42008;52.934;5.884;2022-12-13T01:39:57;66.00;;;29.10;;
56136;SDS011;42008;52.934;5.884;2022-12-13T01:42:22;69.40;;;29.03;;
56136;SDS011;42008;52.934;5.884;2022-12-13T01:47:27;47.10;;;21.33;;
56136;SDS011;42008;52.934;5.884;2022-12-13T01:50:03;64.03;;;27.57;;
56136;SDS011;42008;52.934;5.884;2022-12-13T01:52:32;59.40;;;27.87;;
56136;SDS011;42008;52.934;5.884;2022-12-13T01:54:58;58.00;;;26.23;;
56136;SDS011;42008;52.934;5.884;2022-12-13T01:57:28;60.50;;;26.43;;
56136;SDS011;42008;52.934;5.884;2022-12-13T01:59:54;58.83;;;25.87;;
56136;SDS011;42008;52.934;5.884;2022-12-13T02:02:19;61.13;;;26.63;;
56136;SDS011;42008;52.934;5.884;2022-12-13T02:04:57;53.93;;;25.73;;
56136;SDS011;42008;52.934;5.884;2022-12-13T02:07:35;53.17;;;24.07;;
56136;SDS011;42008;52.934;5.884;2022-12-13T02:10:04;48.17;;;23.70;;
56136;SDS011;42008;52.934;5.884;2022-12-13T02:12:32;52.63;;;25.80;;
56136;SDS011;42008;52.934;5.884;2022-12-13T02:15:01;53.07;;;25.47;;
56136;SDS011;42008;52.934;5.884;2022-12-13T02:22:51;52.67;;;25.13;;
56136;SDS011;42008;52.934;5.884;2022-12-13T02:31:01;57.27;;;27.33;;
56136;SDS011;42008;52.934;5.884;2022-12-13T02:36:43;53.60;;;24.77;;
56136;SDS011;42008;52.934;5.884;2022-12-13T02:39:23;51.50;;;23.40;;
56136;SDS011;42008;52.934;5.884;2022-12-13T02:42:04;48.33;;;23.67;;
56136;SDS011;42008;52.934;5.884;2022-12-13T02:44:36;52.00;;;25.07;;
56136;SDS011;42008;52.934;5.884;2022-12-13T02:47:08;59.90;;;27.65;;
56136;SDS011;42008;52.934;5.884;2022-12-13T02:49:39;59.03;;;26.17;;
56136;SDS011;42008;52.934;5.884;2022-12-13T02:52:08;58.27;;;27.00;;
56136;SDS011;42008;52.934;5.884;2022-12-13T02:54:36;64.00;;;27.83;;
56136;SDS011;42008;52.934;5.884;2022-12-13T02:57:02;64.07;;;27.87;;
56136;SDS011;42008;52.934;5.884;2022-12-13T02:59:34;59.13;;;27.63;;
56136;SDS011;42008;52.934;5.884;2022-12-13T03:04:45;59.87;;;28.23;;
56136;SDS011;42008;52.934;5.884;2022-12-13T03:07:38;58.77;;;27.17;;
56136;SDS011;42008;52.934;5.884;2022-12-13T03:10:39;58.93;;;26.90;;
56136;SDS011;42008;52.934;5.884;2022-12-13T03:13:23;58.30;;;27.63;;
56136;SDS011;42008;52.934;5.884;2022-12-13T03:16:04;51.93;;;24.03;;
56136;SDS011;42008;52.934;5.884;2022-12-13T03:18:35;50.07;;;23.40;;
56136;SDS011;42008;52.934;5.884;2022-12-13T03:21:04;51.67;;;26.83;;
56136;SDS011;42008;52.934;5.884;2022-12-13T03:23:31;56.53;;;26.53;;
56136;SDS011;42008;52.934;5.884;2022-12-13T03:28:43;51.87;;;26.43;;
56136;SDS011;42008;52.934;5.884;2022-12-13T03:31:09;62.00;;;27.30;;
56136;SDS011;42008;52.934;5.884;2022-12-13T03:33:35;54.37;;;25.33;;
56136;SDS011;42008;52.934;5.884;2022-12-13T03:36:03;52.77;;;26.33;;
56136;SDS011;42008;52.934;5.884;2022-12-13T03:38:29;62.23;;;27.23;;
56136;SDS011;42008;52.934;5.884;2022-12-13T03:41:05;60.57;;;27.63;;
56136;SDS011;42008;52.934;5.884;2022-12-13T03:43:34;56.67;;;25.40;;
56136;SDS011;42008;52.934;5.884;2022-12-13T03:46:00;51.53;;;24.97;;
56136;SDS011;42008;52.934;5.884;2022-12-13T03:48:25;55.00;;;27.50;;
56136;SDS011;42008;52.934;5.884;2022-12-13T03:50:51;56.87;;;27.47;;
56136;SDS011;42008;52.934;5.884;2022-12-13T03:53:19;49.73;;;25.67;;
56136;SDS011;42008;52.934;5.884;2022-12-13T03:55:46;56.23;;;25.20;;
56136;SDS011;42008;52.934;5.884;2022-12-13T03:58:12;57.37;;;26.80;;
56136;SDS011;42008;52.934;5.884;2022-12-13T04:00:37;58.20;;;26.57;;
56136;SDS011;42008;52.934;5.884;2022-12-13T04:03:03;51.43;;;26.67;;
56136;SDS011;42008;52.934;5.884;2022-12-13T04:05:29;50.53;;;26.23;;
56136;SDS011;42008;52.934;5.884;2022-12-13T04:07:55;64.30;;;27.93;;
56136;SDS011;42008;52.934;5.884;2022-12-13T04:10:21;56.87;;;26.83;;
56136;SDS011;42008;52.934;5.884;2022-12-13T04:12:47;58.37;;;27.57;;
56136;SDS011;42008;52.934;5.884;2022-12-13T04:15:31;62.67;;;27.50;;
56136;SDS011;42008;52.934;5.884;2022-12-13T04:17:56;52.67;;;27.27;;
56136;SDS011;42008;52.934;5.884;2022-12-13T04:20:22;59.03;;;28.43;;
56136;SDS011;42008;52.934;5.884;2022-12-13T04:22:47;58.83;;;28.03;;
56136;SDS011;42008;52.934;5.884;2022-12-13T04:25:13;51.80;;;25.93;;
56136;SDS011;42008;52.934;5.884;2022-12-13T04:27:39;53.37;;;26.33;;
56136;SDS011;42008;52.934;5.884;2022-12-13T04:30:04;53.10;;;25.37;;
56136;SDS011;42008;52.934;5.884;2022-12-13T04:32:31;55.17;;;26.27;;
56136;SDS011;42008;52.934;5.884;2022-12-13T04:34:57;54.13;;;26.77;;
56136;SDS011;42008;52.934;5.884;2022-12-13T04:37:22;59.53;;;26.10;;
56136;SDS011;42008;52.934;5.884;2022-12-13T04:39:48;57.20;;;25.93;;
56136;SDS011;42008;52.934;5.884;2022-12-13T04:42:14;51.70;;;25.87;;
56136;SDS011;42008;52.934;5.884;2022-12-13T04:44:40;53.80;;;26.40;;
56136;SDS011;42008;52.934;5.884;2022-12-13T04:47:06;53.77;;;26.03;;
56136;SDS011;42008;52.934;5.884;2022-12-13T04:49:31;51.27;;;26.50;;
56136;SDS011;42008;52.934;5.884;2022-12-13T04:51:57;48.20;;;25.97;;
56136;SDS011;42008;52.934;5.884;2022-12-13T04:54:23;56.13;;;25.40;;
56136;SDS011;42008;52.934;5.884;2022-12-13T04:56:49;48.17;;;25.67;;
56136;SDS011;42008;52.934;5.884;2022-12-13T04:59:15;48.30;;;24.87;;
56136;SDS011;42008;52.934;5.884;2022-12-13T05:01:41;50.13;;;24.13;;
56136;SDS011;42008;52.934;5.884;2022-12-13T05:04:06;50.40;;;26.37;;
56136;SDS011;42008;52.934;5.884;2022-12-13T05:06:32;52.83;;;25.53;;
56136;SDS011;42008;52.934;5.884;2022-12-13T05:08:57;51.67;;;25.40;;
56136;SDS011;42008;52.934;5.884;2022-12-13T05:11:23;46.50;;;23.73;;
56136;SDS011;42008;52.934;5.884;2022-12-13T05:13:49;46.57;;;24.00;;
56136;SDS011;42008;52.934;5.884;2022-12-13T05:16:14;47.27;;;23.37;;
56136;SDS011;42008;52.934;5.884;2022-12-13T05:18:40;48.90;;;21.60;;
56136;SDS011;42008;52.934;5.884;2022-12-13T05:21:07;50.90;;;23.27;;
56136;SDS011;42008;52.934;5.884;2022-12-13T05:23:35;57.13;;;25.40;;
56136;SDS011;42008;52.934;5.884;2022-12-13T05:26:01;44.23;;;22.97;;
56136;SDS011;42008;52.934;5.884;2022-12-13T05:28:27;45.53;;;21.73;;
56136;SDS011;42008;52.934;5.884;2022-12-13T05:30:54;38.13;;;20.03;;
56136;SDS011;42008;52.934;5.884;2022-12-13T05:33:21;42.33;;;19.40;;
56136;SDS011;42008;52.934;5.884;2022-12-13T05:35:47;42.43;;;20.90;;
56136;SDS011;42008;52.934;5.884;2022-12-13T05:38:13;46.80;;;22.20;;
56136;SDS011;42008;52.934;5.884;2022-12-13T05:40:39;47.63;;;23.73;;
56136;SDS011;42008;52.934;5.884;2022-12-13T05:43:05;48.47;;;24.20;;
56136;SDS011;42008;52.934;5.884;2022-12-13T05:45:31;52.13;;;25.97;;
56136;SDS011;42008;52.934;5.884;2022-12-13T05:47:57;47.03;;;22.87;;
56136;SDS011;42008;52.934;5.884;2022-12-13T05:50:23;44.97;;;22.17;;
56136;SDS011;42008;52.934;5.884;2022-12-13T05:52:49;43.30;;;20.97;;
56136;SDS011;42008;52.934;5.884;2022-12-13T05:55:15;42.07;;;21.43;;
56136;SDS011;42008;52.934;5.884;2022-12-13T05:57:40;46.10;;;20.97;;
56136;SDS011;42008;52.934;5.884;2022-12-13T06:00:07;48.10;;;24.03;;
56136;SDS011;42008;52.934;5.884;2022-12-13T06:02:38;54.63;;;25.30;;
56136;SDS011;42008;52.934;5.884;2022-12-13T06:05:05;57.87;;;26.57;;
56136;SDS011;42008;52.934;5.884;2022-12-13T06:07:31;50.57;;;25.43;;
56136;SDS011;42008;52.934;5.884;2022-12-13T06:09:57;52.83;;;25.93;;
56136;SDS011;42008;52.934;5.884;2022-12-13T06:12:23;55.30;;;25.37;;
56136;SDS011;42008;52.934;5.884;2022-12-13T06:14:48;58.60;;;27.23;;
56136;SDS011;42008;52.934;5.884;2022-12-13T06:17:14;50.27;;;26.33;;
56136;SDS011;42008;52.934;5.884;2022-12-13T06:19:39;56.80;;;25.83;;
56136;SDS011;42008;52.934;5.884;2022-12-13T06:22:05;53.53;;;25.83;;
56136;SDS011;42008;52.934;5.884;2022-12-13T06:24:30;53.73;;;26.77;;
56136;SDS011;42008;52.934;5.884;2022-12-13T06:26:56;52.53;;;27.33;;
56136;SDS011;42008;52.934;5.884;2022-12-13T06:29:24;50.60;;;25.17;;
56136;SDS011;42008;52.934;5.884;2022-12-13T06:31:53;53.60;;;25.37;;
56136;SDS011;42008;52.934;5.884;2022-12-13T06:34:21;56.00;;;25.77;;
56136;SDS011;42008;52.934;5.884;2022-12-13T06:36:46;54.37;;;27.23;;
56136;SDS011;42008;52.934;5.884;2022-12-13T06:39:12;55.57;;;26.40;;
56136;SDS011;42008;52.934;5.884;2022-12-13T06:41:39;54.07;;;26.53;;
56136;SDS011;42008;52.934;5.884;2022-12-13T06:44:05;53.20;;;26.77;;
56136;SDS011;42008;52.934;5.884;2022-12-13T06:46:31;48.97;;;25.40;;
56136;SDS011;42008;52.934;5.884;2022-12-13T06:48:56;50.80;;;24.90;;
56136;SDS011;42008;52.934;5.884;2022-12-13T06:51:22;55.60;;;26.60;;
56136;SDS011;42008;52.934;5.884;2022-12-13T06:53:48;53.17;;;27.43;;
56136;SDS011;42008;52.934;5.884;2022-12-13T06:56:13;55.73;;;27.30;;
56136;SDS011;42008;52.934;5.884;2022-12-13T06:58:40;53.33;;;26.70;;
56136;SDS011;42008;52.934;5.884;2022-12-13T07:01:10;52.53;;;26.30;;
56136;SDS011;42008;52.934;5.884;2022-12-13T07:03:37;53.07;;;27.37;;
56136;SDS011;42008;52.934;5.884;2022-12-13T07:06:04;67.47;;;29.23;;
56136;SDS011;42008;52.934;5.884;2022-12-13T07:08:32;64.53;;;29.17;;
56136;SDS011;42008;52.934;5.884;2022-12-13T07:10:58;62.37;;;27.20;;
56136;SDS011;42008;52.934;5.884;2022-12-13T07:13:24;62.13;;;28.40;;
56136;SDS011;42008;52.934;5.884;2022-12-13T07:15:49;56.40;;;28.60;;
56136;SDS011;42008;52.934;5.884;2022-12-13T07:18:15;61.43;;;29.80;;
56136;SDS011;42008;52.934;5.884;2022-12-13T07:20:41;57.43;;;28.03;;
56136;SDS011;42008;52.934;5.884;2022-12-13T07:23:07;57.03;;;29.00;;
56136;SDS011;42008;52.934;5.884;2022-12-13T07:25:34;62.37;;;28.93;;
56136;SDS011;42008;52.934;5.884;2022-12-13T07:28:00;60.03;;;28.03;;
56136;SDS011;42008;52.934;5.884;2022-12-13T07:30:28;56.07;;;27.63;;
56136;SDS011;42008;52.934;5.884;2022-12-13T07:32:54;52.93;;;27.77;;
56136;SDS011;42008;52.934;5.884;2022-12-13T07:35:20;53.33;;;27.73;;
56136;SDS011;42008;52.934;5.884;2022-12-13T07:37:45;61.50;;;31.40;;
56136;SDS011;42008;52.934;5.884;2022-12-13T07:40:11;69.63;;;31.77;;
56136;SDS011;42008;52.934;5.884;2022-12-13T07:42:36;79.53;;;38.27;;
56136;SDS011;42008;52.934;5.884;2022-12-13T07:45:02;60.80;;;29.10;;
56136;SDS011;42008;52.934;5.884;2022-12-13T07:47:29;64.83;;;28.90;;
56136;SDS011;42008;52.934;5.884;2022-12-13T07:49:55;61.30;;;28.00;;
56136;SDS011;42008;52.934;5.884;2022-12-13T07:52:21;57.40;;;29.67;;
56136;SDS011;42008;52.934;5.884;2022-12-13T07:54:47;64.10;;;27.97;;
56136;SDS011;42008;52.934;5.884;2022-12-13T07:57:13;62.73;;;28.33;;
56136;SDS011;42008;52.934;5.884;2022-12-13T07:59:38;56.03;;;28.33;;
56136;SDS011;42008;52.934;5.884;2022-12-13T08:02:11;61.33;;;29.63;;
56136;SDS011;42008;52.934;5.884;2022-12-13T08:04:37;58.37;;;28.70;;
56136;SDS011;42008;52.934;5.884;2022-12-13T08:07:06;60.30;;;30.27;;
56136;SDS011;42008;52.934;5.884;2022-12-13T08:09:33;62.83;;;28.07;;
56136;SDS011;42008;52.934;5.884;2022-12-13T08:11:59;56.37;;;26.93;;
56136;SDS011;42008;52.934;5.884;2022-12-13T08:14:25;58.50;;;27.87;;
56136;SDS011;42008;52.934;5.884;2022-12-13T08:16:51;57.07;;;28.53;;
56136;SDS011;42008;52.934;5.884;2022-12-13T08:19:17;52.97;;;26.77;;
56136;SDS011;42008;52.934;5.884;2022-12-13T08:21:42;58.23;;;27.50;;
56136;SDS011;42008;52.934;5.884;2022-12-13T08:24:08;59.93;;;28.80;;
56136;SDS011;42008;52.934;5.884;2022-12-13T08:26:33;61.13;;;30.93;;
56136;SDS011;42008;52.934;5.884;2022-12-13T08:28:59;57.23;;;30.37;;
56136;SDS011;42008;52.934;5.884;2022-12-13T08:31:25;56.67;;;29.63;;
56136;SDS011;42008;52.934;5.884;2022-12-13T08:33:51;64.67;;;32.47;;
56136;SDS011;42008;52.934;5.884;2022-12-13T08:36:17;66.90;;;35.57;;
56136;SDS011;42008;52.934;5.884;2022-12-13T08:38:43;64.23;;;33.60;;
56136;SDS011;42008;52.934;5.884;2022-12-13T08:41:09;63.97;;;32.23;;
56136;SDS011;42008;52.934;5.884;2022-12-13T08:43:35;60.50;;;32.23;;
56136;SDS011;42008;52.934;5.884;2022-12-13T08:46:01;65.13;;;32.43;;
56136;SDS011;42008;52.934;5.884;2022-12-13T08:48:27;67.93;;;34.73;;
56136;SDS011;42008;52.934;5.884;2022-12-13T08:50:53;70.73;;;34.57;;
56136;SDS011;42008;52.934;5.884;2022-12-13T08:53:19;70.43;;;32.03;;
56136;SDS011;42008;52.934;5.884;2022-12-13T08:55:45;70.23;;;33.30;;
56136;SDS011;42008;52.934;5.884;2022-12-13T08:58:11;65.60;;;33.60;;
56136;SDS011;42008;52.934;5.884;2022-12-13T09:00:36;72.07;;;38.03;;
56136;SDS011;42008;52.934;5.884;2022-12-13T09:03:03;72.27;;;36.77;;
56136;SDS011;42008;52.934;5.884;2022-12-13T09:05:30;66.97;;;33.47;;
56136;SDS011;42008;52.934;5.884;2022-12-13T09:07:57;69.10;;;34.00;;
56136;SDS011;42008;52.934;5.884;2022-12-13T09:10:23;70.93;;;34.17;;
56136;SDS011;42008;52.934;5.884;2022-12-13T09:12:49;77.73;;;36.80;;
56136;SDS011;42008;52.934;5.884;2022-12-13T09:15:18;69.27;;;36.17;;
56136;SDS011;42008;52.934;5.884;2022-12-13T09:17:44;61.33;;;34.03;;
56136;SDS011;42008;52.934;5.884;2022-12-13T09:20:10;116.63;;;32.00;;
56136;SDS011;42008;52.934;5.884;2022-12-13T09:22:36;54.90;;;29.37;;
56136;SDS011;42008;52.934;5.884;2022-12-13T09:25:03;47.73;;;27.17;;
56136;SDS011;42008;52.934;5.884;2022-12-13T09:27:30;51.40;;;28.77;;
56136;SDS011;42008;52.934;5.884;2022-12-13T09:29:56;50.87;;;30.53;;
56136;SDS011;42008;52.934;5.884;2022-12-13T09:32:22;52.40;;;29.97;;
56136;SDS011;42008;52.934;5.884;2022-12-13T09:34:49;57.43;;;29.93;;
56136;SDS011;42008;52.934;5.884;2022-12-13T09:37:15;50.73;;;29.90;;
56136;SDS011;42008;52.934;5.884;2022-12-13T09:39:41;60.07;;;29.90;;
56136;SDS011;42008;52.934;5.884;2022-12-13T09:42:40;58.03;;;32.17;;
56136;SDS011;42008;52.934;5.884;2022-12-13T09:45:05;60.95;;;31.75;;
56136;SDS011;42008;52.934;5.884;2022-12-13T09:47:42;61.20;;;33.17;;
56136;SDS011;42008;52.934;5.884;2022-12-13T09:50:21;65.20;;;36.13;;
56136;SDS011;42008;52.934;5.884;2022-12-13T09:52:53;64.17;;;33.93;;
56136;SDS011;42008;52.934;5.884;2022-12-13T09:57:46;54.27;;;32.17;;
56136;SDS011;42008;52.934;5.884;2022-12-13T10:00:13;52.80;;;30.93;;
56136;SDS011;42008;52.934;5.884;2022-12-13T10:02:48;55.87;;;29.77;;
56136;SDS011;42008;52.934;5.884;2022-12-13T10:07:56;50.60;;;30.40;;
56136;SDS011;42008;52.934;5.884;2022-12-13T10:10:24;43.07;;;26.87;;
56136;SDS011;42008;52.934;5.884;2022-12-13T10:13:00;49.00;;;27.33;;
56136;SDS011;42008;52.934;5.884;2022-12-13T10:15:34;45.57;;;27.40;;
56136;SDS011;42008;52.934;5.884;2022-12-13T10:18:04;41.80;;;25.50;;
56136;SDS011;42008;52.934;5.884;2022-12-13T10:20:32;42.23;;;24.97;;
56136;SDS011;42008;52.934;5.884;2022-12-13T10:22:59;39.97;;;24.87;;
56136;SDS011;42008;52.934;5.884;2022-12-13T10:25:42;48.30;;;27.60;;
56136;SDS011;42008;52.934;5.884;2022-12-13T10:28:17;36.97;;;23.30;;
56136;SDS011;42008;52.934;5.884;2022-12-13T10:30:53;46.40;;;25.70;;
56136;SDS011;42008;52.934;5.884;2022-12-13T10:33:21;41.27;;;24.73;;
56136;SDS011;42008;52.934;5.884;2022-12-13T10:36:09;41.83;;;24.07;;
56136;SDS011;42008;52.934;5.884;2022-12-13T10:38:42;42.70;;;25.17;;
56136;SDS011;42008;52.934;5.884;2022-12-13T10:46:42;38.20;;;22.80;;
56136;SDS011;42008;52.934;5.884;2022-12-13T10:49:23;38.43;;;23.07;;
56136;SDS011;42008;52.934;5.884;2022-12-13T10:51:51;41.33;;;23.00;;
56136;SDS011;42008;52.934;5.884;2022-12-13T10:54:25;34.40;;;20.87;;
56136;SDS011;42008;52.934;5.884;2022-12-13T10:56:53;32.47;;;21.40;;
56136;SDS011;42008;52.934;5.884;2022-12-13T10:59:31;31.67;;;20.07;;
56136;SDS011;42008;52.934;5.884;2022-12-13T11:01:58;32.73;;;20.33;;
56136;SDS011;42008;52.934;5.884;2022-12-13T11:06:56;31.00;;;19.13;;
56136;SDS011;42008;52.934;5.884;2022-12-13T11:09:28;31.27;;;20.70;;
56136;SDS011;42008;52.934;5.884;2022-12-13T11:11:54;31.13;;;19.60;;
56136;SDS011;42008;52.934;5.884;2022-12-13T11:14:23;29.63;;;19.37;;
56136;SDS011;42008;52.934;5.884;2022-12-13T11:16:51;29.23;;;18.33;;
56136;SDS011;42008;52.934;5.884;2022-12-13T11:19:23;26.40;;;17.70;;
56136;SDS011;42008;52.934;5.884;2022-12-13T11:21:50;27.93;;;18.27;;
56136;SDS011;42008;52.934;5.884;2022-12-13T11:24:23;26.73;;;17.70;;
56136;SDS011;42008;52.934;5.884;2022-12-13T11:30:09;27.97;;;17.70;;
56136;SDS011;42008;52.934;5.884;2022-12-13T11:36:07;26.67;;;17.70;;
56136;SDS011;42008;52.934;5.884;2022-12-13T11:41:39;24.20;;;16.13;;
56136;SDS011;42008;52.934;5.884;2022-12-13T11:47:19;24.40;;;18.03;;
56136;SDS011;42008;52.934;5.884;2022-12-13T11:49:50;29.87;;;17.97;;
56136;SDS011;42008;52.934;5.884;2022-12-13T11:52:24;34.73;;;18.23;;
56136;SDS011;42008;52.934;5.884;2022-12-13T11:57:53;22.87;;;15.90;;
56136;SDS011;42008;52.934;5.884;2022-12-13T12:00:48;22.13;;;16.80;;
56136;SDS011;42008;52.934;5.884;2022-12-13T12:03:21;24.50;;;16.87;;
56136;SDS011;42008;52.934;5.884;2022-12-13T12:06:00;23.37;;;16.33;;
56136;SDS011;42008;52.934;5.884;2022-12-13T12:08:34;29.67;;;15.97;;
56136;SDS011;42008;52.934;5.884;2022-12-13T12:11:19;24.03;;;16.63;;
56136;SDS011;42008;52.934;5.884;2022-12-13T12:14:09;21.98;;;16.25;;
56136;SDS011;42008;52.934;5.884;2022-12-13T12:16:46;23.37;;;16.73;;
56136;SDS011;42008;52.934;5.884;2022-12-13T12:19:22;19.97;;;15.60;;
56136;SDS011;42008;52.934;5.884;2022-12-13T12:44:17;22.13;;;16.27;;
56136;SDS011;42008;52.934;5.884;2022-12-13T12:47:04;21.17;;;15.60;;
56136;SDS011;42008;52.934;5.884;2022-12-13T12:54:50;20.83;;;14.97;;
56136;SDS011;42008;52.934;5.884;2022-12-13T13:00:20;22.03;;;16.00;;
56136;SDS011;42008;52.934;5.884;2022-12-13T13:02:58;21.53;;;15.63;;
56136;SDS011;42008;52.934;5.884;2022-12-13T13:05:32;20.23;;;15.40;;
56136;SDS011;42008;52.934;5.884;2022-12-13T13:09:05;22.27;;;15.83;;
56136;SDS011;42008;52.934;5.884;2022-12-13T13:11:04;21.63;;;16.33;;
56136;SDS011;42008;52.934;5.884;2022-12-13T13:16:05;20.83;;;16.13;;
56136;SDS011;42008;52.934;5.884;2022-12-13T13:18:51;21.00;;;16.23;;
56136;SDS011;42008;52.934;5.884;2022-12-13T13:26:47;22.70;;;16.90;;
56136;SDS011;42008;52.934;5.884;2022-12-13T13:34:46;22.40;;;17.27;;
56136;SDS011;42008;52.934;5.884;2022-12-13T13:45:26;24.10;;;17.97;;
56136;SDS011;42008;52.934;5.884;2022-12-13T13:47:53;23.43;;;17.10;;
56136;SDS011;42008;52.934;5.884;2022-12-13T13:55:58;23.43;;;18.40;;
56136;SDS011;42008;52.934;5.884;2022-12-13T14:05:08;32.03;;;20.33;;
56136;SDS011;42008;52.934;5.884;2022-12-13T14:08:10;27.90;;;18.85;;
56136;SDS011;42008;52.934;5.884;2022-12-13T14:16:33;31.33;;;20.20;;
56136;SDS011;42008;52.934;5.884;2022-12-13T14:22:11;29.43;;;19.63;;
56136;SDS011;42008;52.934;5.884;2022-12-13T14:24:41;31.47;;;20.90;;
56136;SDS011;42008;52.934;5.884;2022-12-13T14:29:56;30.20;;;21.30;;
56136;SDS011;42008;52.934;5.884;2022-12-13T14:32:26;33.90;;;22.80;;
56136;SDS011;42008;52.934;5.884;2022-12-13T14:34:57;32.25;;;21.80;;
56136;SDS011;42008;52.934;5.884;2022-12-13T14:37:25;37.77;;;23.17;;
56136;SDS011;42008;52.934;5.884;2022-12-13T14:39:54;33.43;;;22.83;;
56136;SDS011;42008;52.934;5.884;2022-12-13T14:42:27;32.17;;;23.20;;
56136;SDS011;42008;52.934;5.884;2022-12-13T14:47:39;33.17;;;22.37;;
56136;SDS011;42008;52.934;5.884;2022-12-13T14:50:05;34.73;;;22.43;;
56136;SDS011;42008;52.934;5.884;2022-12-13T14:52:32;32.17;;;21.87;;
56136;SDS011;42008;52.934;5.884;2022-12-13T14:55:03;35.88;;;22.67;;
56136;SDS011;42008;52.934;5.884;2022-12-13T14:57:31;37.07;;;23.50;;
56136;SDS011;42008;52.934;5.884;2022-12-13T14:59:59;34.90;;;23.23;;
56136;SDS011;42008;52.934;5.884;2022-12-13T15:02:30;35.03;;;22.47;;
56136;SDS011;42008;52.934;5.884;2022-12-13T15:05:01;37.80;;;24.50;;
56136;SDS011;42008;52.934;5.884;2022-12-13T15:07:32;36.60;;;23.53;;
56136;SDS011;42008;52.934;5.884;2022-12-13T15:10:03;36.33;;;23.37;;
56136;SDS011;42008;52.934;5.884;2022-12-13T15:12:29;38.17;;;24.33;;
56136;SDS011;42008;52.934;5.884;2022-12-13T15:15:03;34.83;;;23.50;;
56136;SDS011;42008;52.934;5.884;2022-12-13T15:17:33;36.87;;;24.07;;
56136;SDS011;42008;52.934;5.884;2022-12-13T15:20:01;37.00;;;23.73;;
56136;SDS011;42008;52.934;5.884;2022-12-13T15:22:46;41.83;;;25.63;;
56136;SDS011;42008;52.934;5.884;2022-12-13T15:25:12;41.13;;;25.57;;
56136;SDS011;42008;52.934;5.884;2022-12-13T15:27:40;43.07;;;25.70;;
56136;SDS011;42008;52.934;5.884;2022-12-13T15:30:06;41.53;;;26.57;;
56136;SDS011;42008;52.934;5.884;2022-12-13T15:33:00;42.33;;;25.55;;
56136;SDS011;42008;52.934;5.884;2022-12-13T15:35:42;44.33;;;27.20;;
56136;SDS011;42008;52.934;5.884;2022-12-13T15:38:11;46.70;;;27.03;;
56136;SDS011;42008;52.934;5.884;2022-12-13T15:40:46;33.27;;;20.40;;
56136;SDS011;42008;52.934;5.884;2022-12-13T15:43:17;40.00;;;25.90;;
56136;SDS011;42008;52.934;5.884;2022-12-13T15:45:50;42.30;;;26.53;;
56136;SDS011;42008;52.934;5.884;2022-12-13T15:48:27;46.73;;;27.83;;
56136;SDS011;42008;52.934;5.884;2022-12-13T15:51:06;52.60;;;29.10;;
56136;SDS011;42008;52.934;5.884;2022-12-13T15:53:31;50.80;;;29.73;;
56136;SDS011;42008;52.934;5.884;2022-12-13T15:55:58;48.23;;;27.30;;
56136;SDS011;42008;52.934;5.884;2022-12-13T15:58:25;41.57;;;26.40;;
56136;SDS011;42008;52.934;5.884;2022-12-13T16:01:00;45.40;;;27.40;;
56136;SDS011;42008;52.934;5.884;2022-12-13T16:03:42;44.07;;;26.53;;
56136;SDS011;42008;52.934;5.884;2022-12-13T16:06:09;41.00;;;26.33;;
56136;SDS011;42008;52.934;5.884;2022-12-13T16:08:42;43.37;;;26.93;;
56136;SDS011;42008;52.934;5.884;2022-12-13T16:11:13;43.30;;;27.57;;
56136;SDS011;42008;52.934;5.884;2022-12-13T16:13:39;46.87;;;26.37;;
56136;SDS011;42008;52.934;5.884;2022-12-13T16:18:54;42.50;;;26.80;;
56136;SDS011;42008;52.934;5.884;2022-12-13T16:21:24;44.93;;;26.43;;
56136;SDS011;42008;52.934;5.884;2022-12-13T16:23:51;47.03;;;27.10;;
56136;SDS011;42008;52.934;5.884;2022-12-13T16:26:22;44.33;;;26.70;;
56136;SDS011;42008;52.934;5.884;2022-12-13T16:28:50;45.47;;;27.27;;
56136;SDS011;42008;52.934;5.884;2022-12-13T16:31:17;47.77;;;27.73;;
56136;SDS011;42008;52.934;5.884;2022-12-13T16:33:45;46.53;;;28.10;;
56136;SDS011;42008;52.934;5.884;2022-12-13T16:36:10;47.17;;;25.57;;
56136;SDS011;42008;52.934;5.884;2022-12-13T16:38:36;45.60;;;27.37;;
56136;SDS011;42008;52.934;5.884;2022-12-13T16:41:02;44.73;;;26.57;;
56136;SDS011;42008;52.934;5.884;2022-12-13T16:43:28;46.40;;;28.30;;
56136;SDS011;42008;52.934;5.884;2022-12-13T16:45:56;53.20;;;27.63;;
56136;SDS011;42008;52.934;5.884;2022-12-13T16:48:22;57.37;;;32.57;;